createdAt,value
2023-03-26T00:01:29.719Z,99.90
2023-03-26T00:03:57.502Z,99.90
2023-03-26T00:06:27.281Z,99.90
2023-03-26T00:08:55.548Z,99.90
2023-03-26T00:11:23.685Z,99.90
2023-03-26T00:13:53.557Z,99.90
2023-03-26T00:16:21.128Z,99.90
2023-03-26T00:18:48.938Z,99.90
2023-03-26T00:21:17.703Z,99.90
2023-03-26T00:23:44.851Z,99.90
2023-03-26T00:26:12.801Z,99.90
2023-03-26T00:28:41.415Z,99.90
2023-03-26T00:31:11.457Z,99.90
2023-03-26T00:33:40.904Z,99.90
2023-03-26T00:36:11.252Z,99.90
2023-03-26T00:38:39.201Z,99.90
2023-03-26T00:41:22.591Z,99.90
2023-03-26T00:43:52.154Z,99.90
2023-03-26T00:46:19.326Z,99.90
2023-03-26T00:48:46.577Z,99.90
2023-03-26T00:51:15.994Z,99.90
2023-03-26T00:53:44.538Z,99.90
2023-03-26T00:56:11.250Z,99.90
2023-03-26T00:58:38.732Z,99.90
2023-03-26T01:01:15.345Z,99.90
2023-03-26T01:04:00.923Z,99.90
2023-03-26T01:06:36.033Z,99.90
2023-03-26T01:09:13.485Z,99.90
2023-03-26T01:11:40.622Z,99.90
2023-03-26T01:14:11.711Z,99.90
2023-03-26T01:16:45.019Z,99.90
2023-03-26T01:19:26.183Z,99.90
2023-03-26T01:21:53.210Z,99.90
2023-03-26T01:24:19.948Z,99.90
2023-03-26T01:27:09.656Z,99.90
2023-03-26T01:29:55.677Z,99.90
2023-03-26T01:32:34.401Z,99.90
2023-03-26T01:35:26.405Z,99.90
2023-03-26T01:38:11.098Z,99.90
2023-03-26T01:40:46.887Z,99.90
2023-03-26T01:43:24.274Z,99.90
2023-03-26T01:45:52.635Z,99.90
2023-03-26T01:48:19.714Z,99.90
2023-03-26T01:50:46.526Z,99.90
2023-03-26T01:53:14.418Z,99.90
2023-03-26T01:55:59.287Z,99.90
2023-03-26T01:58:41.391Z,99.90
2023-03-26T02:01:30.126Z,99.90
2023-03-26T02:04:16.738Z,99.90
2023-03-26T02:07:02.032Z,99.90
2023-03-26T02:09:35.782Z,99.90
2023-03-26T02:12:04.390Z,99.90
2023-03-26T02:14:31.859Z,99.90
2023-03-26T02:17:00.053Z,99.90
2023-03-26T02:19:26.942Z,99.90
2023-03-26T02:21:59.909Z,99.90
2023-03-26T02:24:27.069Z,99.90
2023-03-26T02:26:53.822Z,99.90
2023-03-26T02:29:21.321Z,99.90
2023-03-26T02:31:48.555Z,99.90
2023-03-26T02:34:16.738Z,99.90
2023-03-26T02:36:43.565Z,99.90
2023-03-26T02:39:11.513Z,99.90
2023-03-26T02:41:39.135Z,99.90
2023-03-26T02:44:06.329Z,99.90
2023-03-26T02:46:33.923Z,99.90
2023-03-26T02:49:00.942Z,99.90
2023-03-26T02:51:28.808Z,99.90
2023-03-26T02:53:55.707Z,99.90
2023-03-26T02:56:22.586Z,99.90
2023-03-26T02:58:49.390Z,99.90
2023-03-26T03:01:18.335Z,99.90
2023-03-26T03:03:47.287Z,99.90
2023-03-26T03:06:17.096Z,99.90
2023-03-26T03:08:46.016Z,99.90
2023-03-26T03:11:18.342Z,99.90
2023-03-26T03:13:45.378Z,99.90
2023-03-26T03:16:12.243Z,99.90
2023-03-26T03:18:39.055Z,99.90
2023-03-26T03:21:06.226Z,99.90
2023-03-26T03:23:33.050Z,99.90
2023-03-26T03:25:59.846Z,99.90
2023-03-26T03:28:26.738Z,99.90
2023-03-26T03:30:53.559Z,99.90
2023-03-26T03:33:21.470Z,99.90
2023-03-26T03:35:49.562Z,99.90
2023-03-26T03:38:17.640Z,99.90
2023-03-26T03:40:44.613Z,99.90
2023-03-26T03:43:11.382Z,99.90
2023-03-26T03:45:38.110Z,99.90
2023-03-26T03:48:05.320Z,99.90
2023-03-26T03:50:34.398Z,99.90
2023-03-26T03:53:03.064Z,99.90
2023-03-26T03:55:29.945Z,99.90
2023-03-26T03:57:58.421Z,99.90
2023-03-26T04:00:25.456Z,99.90
2023-03-26T04:02:54.515Z,99.90
2023-03-26T04:05:21.637Z,99.90
2023-03-26T04:07:48.484Z,99.90
2023-03-26T04:10:16.068Z,99.90
2023-03-26T04:12:42.920Z,99.90
2023-03-26T04:15:10.152Z,99.90
2023-03-26T04:17:42.755Z,99.90
2023-03-26T04:20:16.263Z,99.90
2023-03-26T04:22:43.609Z,99.90
2023-03-26T04:25:12.925Z,99.90
2023-03-26T04:27:41.704Z,99.90
2023-03-26T04:30:14.690Z,99.90
2023-03-26T04:32:42.932Z,99.90
2023-03-26T04:35:14.263Z,99.90
2023-03-26T04:37:44.253Z,99.90
2023-03-26T04:40:17.178Z,99.90
2023-03-26T04:42:46.789Z,99.90
2023-03-26T04:45:23.032Z,99.90
2023-03-26T04:47:50.673Z,99.90
2023-03-26T04:50:17.839Z,99.90
2023-03-26T04:52:45.445Z,99.90
2023-03-26T04:55:29.034Z,99.90
2023-03-26T04:57:59.738Z,99.90
2023-03-26T05:00:27.805Z,99.90
2023-03-26T05:02:56.287Z,99.90
2023-03-26T05:05:24.010Z,99.90
2023-03-26T05:07:50.765Z,99.90
2023-03-26T05:10:20.199Z,99.90
2023-03-26T05:12:47.254Z,99.90
2023-03-26T05:15:15.313Z,99.90
2023-03-26T05:17:42.885Z,99.90
2023-03-26T05:20:23.308Z,99.90
2023-03-26T05:22:50.742Z,99.90
2023-03-26T05:25:18.375Z,99.90
2023-03-26T05:27:45.901Z,99.90
2023-03-26T05:30:16.322Z,99.90
2023-03-26T05:32:43.516Z,99.90
2023-03-26T05:35:10.492Z,99.90
2023-03-26T05:37:38.826Z,99.90
2023-03-26T05:40:11.483Z,99.90
2023-03-26T05:42:39.219Z,99.90
2023-03-26T05:45:08.464Z,99.90
2023-03-26T05:47:35.455Z,99.90
2023-03-26T05:50:02.332Z,99.90
2023-03-26T05:52:29.136Z,99.90
2023-03-26T05:54:56.823Z,99.90
2023-03-26T05:57:23.988Z,99.90
2023-03-26T05:59:50.886Z,99.90
2023-03-26T06:02:17.666Z,99.90
2023-03-26T06:04:46.008Z,99.90
2023-03-26T06:07:13.068Z,99.90
2023-03-26T06:09:40.889Z,99.90
2023-03-26T06:12:09.514Z,99.90
2023-03-26T06:14:37.026Z,99.90
2023-03-26T06:17:04.218Z,99.90
2023-03-26T06:19:30.942Z,99.90
2023-03-26T06:21:57.749Z,99.90
2023-03-26T06:24:24.581Z,99.90
2023-03-26T06:26:52.296Z,99.90
2023-03-26T06:29:19.290Z,99.90
2023-03-26T06:31:46.337Z,99.90
2023-03-26T06:34:13.218Z,99.90
2023-03-26T06:36:40.452Z,99.90
2023-03-26T06:39:07.770Z,99.90
2023-03-26T06:41:35.583Z,99.90
2023-03-26T06:44:03.382Z,99.90
2023-03-26T06:46:30.411Z,99.90
2023-03-26T06:48:57.168Z,99.90
2023-03-26T06:51:23.938Z,99.90
2023-03-26T06:53:50.672Z,99.90
2023-03-26T06:56:17.346Z,99.90
2023-03-26T06:58:44.278Z,99.90
2023-03-26T07:01:11.392Z,99.90
2023-03-26T07:03:38.388Z,99.90
2023-03-26T07:06:05.457Z,99.90
2023-03-26T07:08:32.245Z,99.90
2023-03-26T07:10:59.003Z,99.90
2023-03-26T07:13:26.096Z,99.90
2023-03-26T07:15:52.785Z,99.90
2023-03-26T07:18:19.498Z,99.90
2023-03-26T07:20:51.190Z,99.90
2023-03-26T07:23:20.562Z,99.90
2023-03-26T07:25:48.542Z,99.90
2023-03-26T07:28:32.389Z,99.90
2023-03-26T07:31:05.055Z,99.90
2023-03-26T07:33:46.914Z,99.90
2023-03-26T07:36:34.083Z,99.90
2023-03-26T07:39:19.602Z,99.90
2023-03-26T07:41:54.561Z,99.90
2023-03-26T07:44:41.866Z,99.90
2023-03-26T07:47:35.994Z,99.90
2023-03-26T07:50:03.542Z,99.90
2023-03-26T07:52:30.681Z,99.90
2023-03-26T07:54:57.907Z,99.90
2023-03-26T07:57:59.473Z,99.90
2023-03-26T08:00:45.968Z,99.90
2023-03-26T08:03:53.538Z,99.90
2023-03-26T08:06:28.118Z,99.90
2023-03-26T08:09:22.810Z,99.90
2023-03-26T08:12:05.989Z,99.90
2023-03-26T08:14:47.362Z,99.90
2023-03-26T08:17:23.725Z,99.90
2023-03-26T08:20:07.288Z,99.90
2023-03-26T08:22:50.797Z,99.90
2023-03-26T08:25:34.789Z,99.90
2023-03-26T08:28:08.462Z,99.90
2023-03-26T08:30:35.845Z,99.90
2023-03-26T08:33:11.289Z,99.90
2023-03-26T08:35:44.574Z,99.90
2023-03-26T08:38:13.595Z,99.90
2023-03-26T08:40:55.473Z,99.90
2023-03-26T08:43:31.030Z,99.90
2023-03-26T08:46:31.536Z,99.90
2023-03-26T08:49:07.099Z,99.90
2023-03-26T08:52:02.961Z,99.90
2023-03-26T08:54:56.854Z,99.90
2023-03-26T08:57:50.509Z,99.90
2023-03-26T09:00:34.766Z,99.90
2023-03-26T09:03:39.007Z,99.90
2023-03-26T09:06:43.641Z,99.90
2023-03-26T09:09:32.031Z,99.90
2023-03-26T09:12:44.018Z,99.90
2023-03-26T09:15:48.679Z,99.90
2023-03-26T09:18:34.034Z,99.90
2023-03-26T09:21:00.841Z,99.90
2023-03-26T09:23:46.153Z,99.90
2023-03-26T09:26:34.892Z,99.90
2023-03-26T09:29:32.834Z,99.90
2023-03-26T09:32:22.051Z,99.90
2023-03-26T09:35:18.887Z,99.90
2023-03-26T09:37:58.952Z,99.90
2023-03-26T09:40:47.561Z,99.90
2023-03-26T09:43:39.603Z,99.90
2023-03-26T09:46:22.150Z,99.90
2023-03-26T09:48:49.165Z,99.90
2023-03-26T09:51:43.992Z,99.90
2023-03-26T09:54:32.168Z,99.90
2023-03-26T09:57:07.972Z,99.90
2023-03-26T09:59:40.659Z,99.90
2023-03-26T10:02:51.092Z,99.90
2023-03-26T10:05:28.129Z,99.90
2023-03-26T10:08:25.514Z,99.90
2023-03-26T10:11:17.116Z,99.90
2023-03-26T10:13:51.528Z,99.90
2023-03-26T10:16:31.389Z,99.90
2023-03-26T10:19:07.882Z,99.90
2023-03-26T10:21:50.511Z,99.90
2023-03-26T10:24:32.781Z,99.90
2023-03-26T10:27:18.499Z,99.90
2023-03-26T10:30:04.073Z,99.90
2023-03-26T10:32:38.043Z,99.90
2023-03-26T10:35:25.312Z,99.90
2023-03-26T10:38:09.371Z,99.90
2023-03-26T10:41:04.472Z,99.90
2023-03-26T10:44:08.009Z,99.90
2023-03-26T10:46:58.651Z,99.90
2023-03-26T10:50:01.271Z,99.90
2023-03-26T10:52:37.759Z,99.90
2023-03-26T10:55:13.449Z,99.90
2023-03-26T10:57:42.892Z,99.90
2023-03-26T11:00:25.638Z,99.90
2023-03-26T11:03:12.930Z,99.90
2023-03-26T11:06:01.890Z,99.90
2023-03-26T11:08:35.409Z,99.90
2023-03-26T11:11:47.266Z,99.90
2023-03-26T11:14:27.862Z,99.90
2023-03-26T11:17:14.890Z,99.90
2023-03-26T11:20:02.758Z,99.90
2023-03-26T11:22:46.689Z,99.90
2023-03-26T11:25:45.617Z,99.90
2023-03-26T11:28:49.669Z,99.90
2023-03-26T11:31:42.786Z,99.90
2023-03-26T11:34:20.341Z,99.90
2023-03-26T11:36:52.725Z,99.90
2023-03-26T11:39:44.210Z,99.90
2023-03-26T11:42:14.503Z,99.90
2023-03-26T11:44:55.801Z,99.90
2023-03-26T11:47:30.945Z,99.90
2023-03-26T11:50:00.250Z,99.90
2023-03-26T11:52:27.927Z,99.90
2023-03-26T11:54:58.479Z,99.90
2023-03-26T11:57:36.226Z,99.90
2023-03-26T12:00:17.948Z,99.90
2023-03-26T12:02:46.909Z,99.90
2023-03-26T12:05:15.592Z,99.90
2023-03-26T12:07:49.604Z,99.90
2023-03-26T12:10:33.397Z,99.90
2023-03-26T12:13:03.025Z,99.90
2023-03-26T12:15:32.019Z,99.90
2023-03-26T12:18:20.817Z,99.90
2023-03-26T12:20:48.248Z,99.90
2023-03-26T12:23:38.922Z,99.90
2023-03-26T12:26:18.220Z,99.90
2023-03-26T12:28:47.681Z,99.90
2023-03-26T12:31:19.333Z,99.90
2023-03-26T12:34:06.324Z,99.90
2023-03-26T12:36:36.085Z,99.90
2023-03-26T12:40:07.883Z,99.90
2023-03-26T12:44:44.404Z,99.10
2023-03-26T12:45:40.751Z,96.00
2023-03-26T12:48:12.943Z,98.20
2023-03-26T12:51:05.135Z,97.40
2023-03-26T12:53:35.056Z,96.80
2023-03-26T12:56:06.977Z,94.70
2023-03-26T12:58:41.070Z,92.70
2023-03-26T13:01:34.667Z,93.40
2023-03-26T13:04:28.751Z,94.30
2023-03-26T13:07:04.539Z,91.30
2023-03-26T13:09:39.551Z,90.30
2023-03-26T13:12:10.268Z,91.40
2023-03-26T13:15:22.570Z,89.10
2023-03-26T13:18:17.001Z,83.10
2023-03-26T13:20:52.752Z,80.40
2023-03-26T13:23:33.738Z,82.50
2023-03-26T13:26:06.350Z,79.90
2023-03-26T13:28:53.400Z,77.20
2023-03-26T13:31:51.341Z,76.70
2023-03-26T13:34:36.314Z,77.50
2023-03-26T13:37:20.553Z,75.40
2023-03-26T13:40:11.395Z,74.40
2023-03-26T13:42:55.508Z,73.10
2023-03-26T13:45:54.385Z,73.60
2023-03-26T13:48:43.070Z,70.30
2023-03-26T13:51:17.819Z,72.50
2023-03-26T13:53:56.802Z,70.60
2023-03-26T13:56:32.050Z,68.10
2023-03-26T13:59:08.782Z,66.40
2023-03-26T14:01:45.484Z,67.60
2023-03-26T14:04:24.470Z,66.50
2023-03-26T14:07:19.020Z,67.70
2023-03-26T14:09:51.642Z,66.60
2023-03-26T14:12:24.418Z,68.80
2023-03-26T14:15:00.284Z,67.30
2023-03-26T14:17:31.258Z,65.60
2023-03-26T14:20:23.782Z,65.10
2023-03-26T14:22:56.294Z,62.30
2023-03-26T14:25:56.587Z,60.20
2023-03-26T14:28:29.473Z,58.90
2023-03-26T14:31:19.497Z,61.10
2023-03-26T14:34:07.157Z,59.30
2023-03-26T14:36:52.967Z,58.60
2023-03-26T14:39:50.544Z,57.30
2023-03-26T14:42:55.201Z,56.60
2023-03-26T14:45:31.980Z,57.80
2023-03-26T14:48:01.813Z,59.20
2023-03-26T14:50:57.554Z,59.00
2023-03-26T14:53:33.668Z,57.80
2023-03-26T14:56:36.378Z,55.90
2023-03-26T14:59:41.112Z,57.60
2023-03-26T15:02:59.216Z,56.00
2023-03-26T15:05:44.501Z,55.90
2023-03-26T15:08:33.710Z,57.10
2023-03-26T15:11:25.541Z,54.20
2023-03-26T15:14:29.215Z,55.00
2023-03-26T15:17:13.912Z,55.60
2023-03-26T15:20:03.380Z,55.00
2023-03-26T15:23:18.547Z,54.50
2023-03-26T15:26:19.554Z,55.10
2023-03-26T15:29:36.992Z,55.10
2023-03-26T15:32:33.444Z,54.30
2023-03-26T15:35:18.447Z,53.80
2023-03-26T15:38:08.273Z,54.20
2023-03-26T15:40:43.909Z,54.20
2023-03-26T15:43:13.599Z,54.40
2023-03-26T15:46:12.097Z,54.80
2023-03-26T15:49:03.704Z,54.70
2023-03-26T15:51:53.621Z,54.80
2023-03-26T15:54:39.483Z,54.90
2023-03-26T15:57:31.420Z,53.80
2023-03-26T15:59:59.194Z,54.50
2023-03-26T16:02:45.041Z,54.10
2023-03-26T16:05:31.122Z,55.20
2023-03-26T16:08:16.651Z,54.90
2023-03-26T16:10:58.501Z,54.20
2023-03-26T16:13:37.587Z,54.50
2023-03-26T16:16:04.344Z,55.00
2023-03-26T16:18:38.148Z,52.90
2023-03-26T16:21:34.518Z,52.00
2023-03-26T16:24:07.285Z,51.30
2023-03-26T16:26:59.393Z,51.90
2023-03-26T16:29:28.758Z,52.10
2023-03-26T16:32:07.769Z,52.20
2023-03-26T16:34:53.915Z,51.20
2023-03-26T16:37:37.080Z,51.80
2023-03-26T16:40:22.429Z,52.70
2023-03-26T16:43:10.842Z,52.50
2023-03-26T16:46:08.702Z,52.80
2023-03-26T16:48:46.431Z,52.80
2023-03-26T16:51:32.236Z,53.10
2023-03-26T16:54:24.241Z,53.50
2023-03-26T16:57:28.894Z,52.00
2023-03-26T17:00:57.947Z,51.70
2023-03-26T17:03:37.718Z,52.10
2023-03-26T17:06:25.372Z,51.80
2023-03-26T17:09:04.217Z,52.80
2023-03-26T17:11:38.415Z,53.80
2023-03-26T17:14:21.946Z,53.40
2023-03-26T17:17:06.605Z,54.10
2023-03-26T17:19:44.401Z,53.40
2023-03-26T17:22:15.328Z,53.30
2023-03-26T17:24:57.973Z,53.10
2023-03-26T17:27:36.761Z,52.90
2023-03-26T17:30:41.014Z,51.00
2023-03-26T17:33:26.837Z,51.10
2023-03-26T17:36:43.302Z,50.70
2023-03-26T17:39:22.367Z,51.10
2023-03-26T17:41:52.572Z,50.90
2023-03-26T17:44:55.779Z,51.40
2023-03-26T17:47:45.284Z,51.30
2023-03-26T17:50:17.149Z,51.50
2023-03-26T17:53:04.707Z,51.60
2023-03-26T17:55:34.964Z,51.00
2023-03-26T17:58:04.873Z,51.30
2023-03-26T18:00:36.014Z,52.20
2023-03-26T18:03:18.603Z,52.70
2023-03-26T18:05:47.147Z,53.10
2023-03-26T18:08:52.777Z,54.60
2023-03-26T18:11:19.644Z,54.20
2023-03-26T18:14:20.509Z,54.70
2023-03-26T18:16:53.801Z,55.40
2023-03-26T18:19:23.140Z,56.40
2023-03-26T18:21:52.757Z,58.00
2023-03-26T18:24:32.516Z,58.00
2023-03-26T18:27:11.505Z,58.30
2023-03-26T18:29:46.846Z,58.70
2023-03-26T18:32:13.597Z,59.30
2023-03-26T18:34:50.105Z,59.70
2023-03-26T18:37:23.968Z,60.80
2023-03-26T18:40:11.705Z,60.50
2023-03-26T18:42:51.465Z,61.10
2023-03-26T18:45:36.371Z,62.50
2023-03-26T18:48:19.199Z,62.60
2023-03-26T18:50:48.451Z,63.60
2023-03-26T18:53:21.353Z,64.20
2023-03-26T18:55:50.639Z,65.00
2023-03-26T18:58:34.381Z,65.90
2023-03-26T19:01:04.625Z,66.20
2023-03-26T19:03:35.698Z,66.50
2023-03-26T19:06:04.716Z,66.60
2023-03-26T19:08:32.895Z,66.50
2023-03-26T19:11:04.381Z,65.70
2023-03-26T19:13:32.838Z,65.20
2023-03-26T19:16:07.534Z,64.50
2023-03-26T19:18:38.514Z,63.50
2023-03-26T19:21:11.151Z,62.80
2023-03-26T19:23:41.225Z,62.80
2023-03-26T19:26:10.596Z,61.90
2023-03-26T19:28:41.787Z,61.10
2023-03-26T19:31:14.909Z,61.00
2023-03-26T19:33:43.712Z,61.40
2023-03-26T19:36:13.560Z,61.70
2023-03-26T19:38:44.542Z,62.10
2023-03-26T19:41:23.763Z,62.60
2023-03-26T19:43:55.762Z,62.90
2023-03-26T19:46:23.397Z,63.40
2023-03-26T19:48:54.152Z,62.80
2023-03-26T19:51:35.752Z,62.80
2023-03-26T19:54:15.967Z,62.60
2023-03-26T19:56:43.629Z,62.20
2023-03-26T19:59:10.451Z,62.00
2023-03-26T20:01:37.458Z,62.20
2023-03-26T20:04:06.603Z,62.50
2023-03-26T20:06:43.373Z,62.90
2023-03-26T20:09:12.617Z,63.30
2023-03-26T20:11:40.783Z,63.40
2023-03-26T20:14:14.457Z,63.70
2023-03-26T20:16:43.108Z,63.90
2023-03-26T20:19:11.541Z,64.00
2023-03-26T20:21:38.339Z,64.60
2023-03-26T20:24:16.602Z,64.30
2023-03-26T20:26:48.020Z,64.50
2023-03-26T20:29:15.238Z,64.70
2023-03-26T20:31:43.367Z,65.00
2023-03-26T20:34:23.372Z,65.40
2023-03-26T20:36:56.069Z,65.90
2023-03-26T20:39:26.261Z,66.30
2023-03-26T20:41:54.724Z,67.20
2023-03-26T20:44:22.519Z,67.20
2023-03-26T20:46:50.393Z,67.60
2023-03-26T20:49:18.366Z,68.30
2023-03-26T20:51:46.809Z,68.70
2023-03-26T20:54:25.242Z,70.00
2023-03-26T20:56:54.165Z,70.70
2023-03-26T20:59:27.720Z,71.10
2023-03-26T21:01:57.526Z,72.00
2023-03-26T21:04:26.263Z,72.60
2023-03-26T21:06:57.561Z,74.20
2023-03-26T21:09:35.180Z,74.80
2023-03-26T21:12:06.121Z,75.30
2023-03-26T21:14:40.982Z,75.80
2023-03-26T21:17:20.611Z,75.80
2023-03-26T21:19:48.088Z,75.70
2023-03-26T21:22:36.970Z,76.70
2023-03-26T21:25:19.706Z,78.70
2023-03-26T21:28:19.443Z,80.20
2023-03-26T21:30:48.389Z,81.40
2023-03-26T21:33:15.100Z,82.20
2023-03-26T21:35:42.365Z,81.90
2023-03-26T21:38:10.691Z,83.00
2023-03-26T21:40:40.519Z,83.90
2023-03-26T21:43:11.822Z,84.80
2023-03-26T21:45:39.388Z,84.50
2023-03-26T21:48:06.575Z,84.10
2023-03-26T21:50:33.668Z,84.00
2023-03-26T21:53:01.672Z,84.40
2023-03-26T21:55:28.705Z,84.40
2023-03-26T21:58:04.535Z,85.70
2023-03-26T22:00:55.822Z,87.10
2023-03-26T22:03:32.998Z,88.90
2023-03-26T22:06:11.382Z,89.40
2023-03-26T22:08:40.618Z,89.10
2023-03-26T22:11:10.108Z,88.90
2023-03-26T22:13:38.602Z,89.30
2023-03-26T22:16:07.160Z,90.20
2023-03-26T22:18:33.965Z,90.40
2023-03-26T22:21:01.096Z,90.70
2023-03-26T22:23:36.648Z,91.00
2023-03-26T22:26:04.995Z,90.90
2023-03-26T22:28:32.152Z,91.10
2023-03-26T22:30:59.537Z,90.80
2023-03-26T22:33:26.747Z,91.10
2023-03-26T22:35:55.841Z,90.90
2023-03-26T22:38:23.027Z,91.10
2023-03-26T22:40:57.142Z,91.20
2023-03-26T22:43:24.160Z,91.40
2023-03-26T22:45:51.336Z,91.80
2023-03-26T22:48:18.310Z,92.40
2023-03-26T22:50:45.040Z,92.60
2023-03-26T22:53:12.022Z,93.00
2023-03-26T22:55:38.759Z,93.10
2023-03-26T22:58:05.427Z,93.10
2023-03-26T23:00:32.375Z,93.10
2023-03-26T23:03:00.610Z,93.00
2023-03-26T23:05:28.464Z,92.90
2023-03-26T23:07:55.906Z,92.80
2023-03-26T23:10:22.717Z,92.70
2023-03-26T23:12:49.634Z,92.50
2023-03-26T23:15:16.638Z,92.30
2023-03-26T23:17:43.389Z,92.10
2023-03-26T23:20:15.388Z,92.40
2023-03-26T23:22:43.067Z,92.20
2023-03-26T23:25:11.318Z,92.10
2023-03-26T23:27:40.025Z,92.00
2023-03-26T23:30:07.490Z,91.90
2023-03-26T23:32:38.246Z,91.70
2023-03-26T23:35:06.024Z,91.80
2023-03-26T23:37:35.093Z,91.30
2023-03-26T23:40:06.494Z,91.20
2023-03-26T23:42:34.568Z,91.00
2023-03-26T23:45:02.113Z,91.20
2023-03-26T23:47:34.290Z,91.40
2023-03-26T23:50:05.177Z,91.90
2023-03-26T23:52:31.940Z,92.20
2023-03-26T23:55:00.022Z,92.30
2023-03-26T23:57:27.354Z,92.60
2023-03-26T23:59:54.726Z,92.60
